sensor_id;sensor_type;location;lat;lon;timestamp;pressure;altitude;pressure_sealevel;temperature
45034;BMP280;30771;47.988;-4.186;2022-11-24T07:01:35;98939.75;;;11.91
45034;BMP280;30771;47.988;-4.186;2022-11-24T07:04:01;98957.94;;;12.09
45034;BMP280;30771;47.988;-4.186;2022-11-24T07:06:26;98942.53;;;12.01
45034;BMP280;30771;47.988;-4.186;2022-11-24T07:08:51;98961.66;;;12.13
45034;BMP280;30771;47.988;-4.186;2022-11-24T07:11:20;98961.16;;;12.16
45034;BMP280;30771;47.988;-4.186;2022-11-24T07:13:46;98952.19;;;12.17
45034;BMP280;30771;47.988;-4.186;2022-11-24T07:16:17;98943.22;;;12.18
45034;BMP280;30771;47.988;-4.186;2022-11-24T07:18:44;98953.06;;;12.23
45034;BMP280;30771;47.988;-4.186;2022-11-24T07:21:10;98944.34;;;12.22
45034;BMP280;30771;47.988;-4.186;2022-11-24T07:23:35;98938.09;;;12.28
45034;BMP280;30771;47.988;-4.186;2022-11-24T07:26:02;98949.22;;;12.35
45034;BMP280;30771;47.988;-4.186;2022-11-24T07:28:28;98934.47;;;12.39
45034;BMP280;30771;47.988;-4.186;2022-11-24T07:30:54;98938.75;;;12.45
45034;BMP280;30771;47.988;-4.186;2022-11-24T07:33:19;98943.03;;;12.51
45034;BMP280;30771;47.988;-4.186;2022-11-24T07:35:44;98943.09;;;12.56
45034;BMP280;30771;47.988;-4.186;2022-11-24T07:38:09;98941.56;;;12.60
45034;BMP280;30771;47.988;-4.186;2022-11-24T07:40:35;98954.56;;;12.67
45034;BMP280;30771;47.988;-4.186;2022-11-24T07:43:00;98965.44;;;12.70
45034;BMP280;30771;47.988;-4.186;2022-11-24T07:45:25;98974.44;;;12.74
45034;BMP280;30771;47.988;-4.186;2022-11-24T07:47:51;98956.22;;;12.78
45034;BMP280;30771;47.988;-4.186;2022-11-24T07:50:16;98954.69;;;12.82
45034;BMP280;30771;47.988;-4.186;2022-11-24T07:52:41;98946.25;;;12.85
45034;BMP280;30771;47.988;-4.186;2022-11-24T07:55:07;98952.88;;;12.87
45034;BMP280;30771;47.988;-4.186;2022-11-24T07:57:33;98937.59;;;12.89
45034;BMP280;30771;47.988;-4.186;2022-11-24T07:59:58;98948.75;;;12.96
45034;BMP280;30771;47.988;-4.186;2022-11-24T08:02:23;98945.03;;;12.97
45034;BMP280;30771;47.988;-4.186;2022-11-24T08:04:48;98937.41;;;13.01
45034;BMP280;30771;47.988;-4.186;2022-11-24T08:07:14;98940.88;;;13.06
45034;BMP280;30771;47.988;-4.186;2022-11-24T08:09:39;98930.56;;;13.10
45034;BMP280;30771;47.988;-4.186;2022-11-24T08:12:04;98945.91;;;13.08
45034;BMP280;30771;47.988;-4.186;2022-11-24T08:14:30;98975.03;;;13.18
45034;BMP280;30771;47.988;-4.186;2022-11-24T08:16:56;98991.69;;;13.18
45034;BMP280;30771;47.988;-4.186;2022-11-24T08:19:22;99010.78;;;13.25
45034;BMP280;30771;47.988;-4.186;2022-11-24T08:21:47;99023.75;;;13.27
45034;BMP280;30771;47.988;-4.186;2022-11-24T08:24:12;99039.38;;;13.29
45034;BMP280;30771;47.988;-4.186;2022-11-24T08:26:37;99051.81;;;13.33
45034;BMP280;30771;47.988;-4.186;2022-11-24T08:29:03;99061.09;;;13.36
45034;BMP280;30771;47.988;-4.186;2022-11-24T08:31:28;99056.88;;;13.40
45034;BMP280;30771;47.988;-4.186;2022-11-24T08:33:56;99064.06;;;13.44
45034;BMP280;30771;47.988;-4.186;2022-11-24T08:36:22;99050.59;;;13.46
45034;BMP280;30771;47.988;-4.186;2022-11-24T08:38:47;99052.72;;;13.49
45034;BMP280;30771;47.988;-4.186;2022-11-24T08:41:14;99073.94;;;13.54
45034;BMP280;30771;47.988;-4.186;2022-11-24T08:43:40;99050.91;;;13.54
45034;BMP280;30771;47.988;-4.186;2022-11-24T08:46:08;99054.66;;;13.58
45034;BMP280;30771;47.988;-4.186;2022-11-24T08:48:35;99048.03;;;13.61
45034;BMP280;30771;47.988;-4.186;2022-11-24T08:51:11;99063.97;;;13.66
45034;BMP280;30771;47.988;-4.186;2022-11-24T08:53:38;99055.25;;;13.70
45034;BMP280;30771;47.988;-4.186;2022-11-24T08:56:04;99041.19;;;13.65
45034;BMP280;30771;47.988;-4.186;2022-11-24T08:58:30;99044.41;;;13.72
45034;BMP280;30771;47.988;-4.186;2022-11-24T09:01:09;99039.91;;;13.72
45034;BMP280;30771;47.988;-4.186;2022-11-24T09:03:35;99025.88;;;13.72
45034;BMP280;30771;47.988;-4.186;2022-11-24T09:06:01;99029.84;;;13.74
45034;BMP280;30771;47.988;-4.186;2022-11-24T09:08:28;99033.66;;;13.83
45034;BMP280;30771;47.988;-4.186;2022-11-24T09:10:59;99028.59;;;13.87
45034;BMP280;30771;47.988;-4.186;2022-11-24T09:13:24;99029.41;;;13.87
45034;BMP280;30771;47.988;-4.186;2022-11-24T09:15:49;99038.94;;;13.88
45034;BMP280;30771;47.988;-4.186;2022-11-24T09:18:14;99046.09;;;13.88
45034;BMP280;30771;47.988;-4.186;2022-11-24T09:20:40;99046.09;;;13.93
45034;BMP280;30771;47.988;-4.186;2022-11-24T09:23:05;99050.09;;;13.95
45034;BMP280;30771;47.988;-4.186;2022-11-24T09:25:30;99046.38;;;13.96
45034;BMP280;30771;47.988;-4.186;2022-11-24T09:27:55;99048.03;;;14.02
45034;BMP280;30771;47.988;-4.186;2022-11-24T09:30:21;99049.38;;;14.10
45034;BMP280;30771;47.988;-4.186;2022-11-24T09:32:46;99032.44;;;14.16
45034;BMP280;30771;47.988;-4.186;2022-11-24T09:35:11;99070.03;;;14.23
45034;BMP280;30771;47.988;-4.186;2022-11-24T09:37:36;99084.41;;;14.27
45034;BMP280;30771;47.988;-4.186;2022-11-24T09:40:02;99086.75;;;14.28
45034;BMP280;30771;47.988;-4.186;2022-11-24T09:48:18;99100.53;;;14.30
45034;BMP280;30771;47.988;-4.186;2022-11-24T09:50:47;99125.72;;;14.33
45034;BMP280;30771;47.988;-4.186;2022-11-24T09:53:26;99124.91;;;14.32
45034;BMP280;30771;47.988;-4.186;2022-11-24T09:55:59;99141.06;;;14.36
45034;BMP280;30771;47.988;-4.186;2022-11-24T09:58:37;99138.44;;;14.41
45034;BMP280;30771;47.988;-4.186;2022-11-24T10:04:20;99125.53;;;14.60
45034;BMP280;30771;47.988;-4.186;2022-11-24T10:18:21;99145.00;;;14.95
45034;BMP280;30771;47.988;-4.186;2022-11-24T10:21:03;99165.94;;;14.97
45034;BMP280;30771;47.988;-4.186;2022-11-24T10:26:51;99149.47;;;14.85
45034;BMP280;30771;47.988;-4.186;2022-11-24T10:31:54;99132.47;;;14.71
45034;BMP280;30771;47.988;-4.186;2022-11-24T10:34:27;99123.72;;;14.70
45034;BMP280;30771;47.988;-4.186;2022-11-24T10:36:59;99113.38;;;14.69
45034;BMP280;30771;47.988;-4.186;2022-11-24T10:39:35;99122.69;;;14.71
45034;BMP280;30771;47.988;-4.186;2022-11-24T10:44:43;99102.53;;;14.70
45034;BMP280;30771;47.988;-4.186;2022-11-24T10:47:16;99102.53;;;14.75
45034;BMP280;30771;47.988;-4.186;2022-11-24T10:49:48;99099.13;;;14.80
45034;BMP280;30771;47.988;-4.186;2022-11-24T10:52:17;99099.94;;;14.85
45034;BMP280;30771;47.988;-4.186;2022-11-24T10:55:15;99111.34;;;14.96
45034;BMP280;30771;47.988;-4.186;2022-11-24T10:57:40;99088.81;;;14.98
45034;BMP280;30771;47.988;-4.186;2022-11-24T11:02:44;99093.03;;;15.09
45034;BMP280;30771;47.988;-4.186;2022-11-24T11:10:37;99052.22;;;15.30
45034;BMP280;30771;47.988;-4.186;2022-11-24T11:15:47;99041.56;;;15.55
45034;BMP280;30771;47.988;-4.186;2022-11-24T11:18:17;99039.72;;;15.56
45034;BMP280;30771;47.988;-4.186;2022-11-24T11:20:52;99026.47;;;15.46
45034;BMP280;30771;47.988;-4.186;2022-11-24T11:23:28;99016.16;;;15.39
45034;BMP280;30771;47.988;-4.186;2022-11-24T11:26:34;98981.41;;;15.36
45034;BMP280;30771;47.988;-4.186;2022-11-24T11:29:13;98996.00;;;15.33
45034;BMP280;30771;47.988;-4.186;2022-11-24T11:31:39;99130.72;;;15.26
45034;BMP280;30771;47.988;-4.186;2022-11-24T11:36:38;99355.41;;;13.41
45034;BMP280;30771;47.988;-4.186;2022-11-24T11:39:04;99306.06;;;12.54
45034;BMP280;30771;47.988;-4.186;2022-11-24T11:41:33;99240.50;;;12.12
45034;BMP280;30771;47.988;-4.186;2022-11-24T11:44:31;99208.31;;;11.94
45034;BMP280;30771;47.988;-4.186;2022-11-24T11:46:59;99161.53;;;11.89
45034;BMP280;30771;47.988;-4.186;2022-11-24T11:49:27;99110.09;;;11.87
45034;BMP280;30771;47.988;-4.186;2022-11-24T11:52:02;99119.09;;;11.91
45034;BMP280;30771;47.988;-4.186;2022-11-24T11:54:43;99106.47;;;11.93
45034;BMP280;30771;47.988;-4.186;2022-11-24T12:11:07;98865.84;;;12.07
45034;BMP280;30771;47.988;-4.186;2022-11-24T12:16:34;98803.03;;;13.19
45034;BMP280;30771;47.988;-4.186;2022-11-24T12:19:18;98813.69;;;13.55
45034;BMP280;30771;47.988;-4.186;2022-11-24T12:25:05;98741.31;;;13.91
45034;BMP280;30771;47.988;-4.186;2022-11-24T12:35:19;98745.03;;;14.00
45034;BMP280;30771;47.988;-4.186;2022-11-24T12:43:49;98818.44;;;13.43
45034;BMP280;30771;47.988;-4.186;2022-11-24T12:51:35;98885.22;;;13.23
45034;BMP280;30771;47.988;-4.186;2022-11-24T12:54:04;98896.56;;;13.18
45034;BMP280;30771;47.988;-4.186;2022-11-24T12:59:26;98909.63;;;13.35
45034;BMP280;30771;47.988;-4.186;2022-11-24T13:07:38;98959.47;;;13.63
45034;BMP280;30771;47.988;-4.186;2022-11-24T13:13:00;99038.69;;;13.85
45034;BMP280;30771;47.988;-4.186;2022-11-24T13:15:27;99043.16;;;13.84
45034;BMP280;30771;47.988;-4.186;2022-11-24T13:17:53;99063.81;;;13.87
45034;BMP280;30771;47.988;-4.186;2022-11-24T13:22:57;99057.72;;;13.87
45034;BMP280;30771;47.988;-4.186;2022-11-24T13:25:26;99052.16;;;13.83
45034;BMP280;30771;47.988;-4.186;2022-11-24T13:27:52;99051.34;;;13.83
45034;BMP280;30771;47.988;-4.186;2022-11-24T13:33:25;99039.72;;;13.89
45034;BMP280;30771;47.988;-4.186;2022-11-24T13:49:20;99017.78;;;13.93
45034;BMP280;30771;47.988;-4.186;2022-11-24T13:51:46;99036.84;;;13.90
45034;BMP280;30771;47.988;-4.186;2022-11-24T13:54:11;99047.16;;;13.92
45034;BMP280;30771;47.988;-4.186;2022-11-24T13:56:36;99043.44;;;13.88
45034;BMP280;30771;47.988;-4.186;2022-11-24T13:59:16;99056.16;;;13.91
45034;BMP280;30771;47.988;-4.186;2022-11-24T14:01:41;99041.34;;;13.90
45034;BMP280;30771;47.988;-4.186;2022-11-24T14:04:22;99040.28;;;13.91
45034;BMP280;30771;47.988;-4.186;2022-11-24T14:11:58;99017.69;;;13.73
45034;BMP280;30771;47.988;-4.186;2022-11-24T14:14:24;99020.25;;;13.58
45034;BMP280;30771;47.988;-4.186;2022-11-24T14:17:14;99031.84;;;13.52
45034;BMP280;30771;47.988;-4.186;2022-11-24T14:19:41;99046.59;;;13.43
45034;BMP280;30771;47.988;-4.186;2022-11-24T14:22:35;99073.03;;;13.43
45034;BMP280;30771;47.988;-4.186;2022-11-24T14:25:03;99083.34;;;13.45
45034;BMP280;30771;47.988;-4.186;2022-11-24T14:27:31;99109.56;;;13.46
45034;BMP280;30771;47.988;-4.186;2022-11-24T14:30:03;99123.00;;;13.45
45034;BMP280;30771;47.988;-4.186;2022-11-24T14:32:29;99114.25;;;13.39
45034;BMP280;30771;47.988;-4.186;2022-11-24T14:34:54;99112.03;;;13.26
45034;BMP280;30771;47.988;-4.186;2022-11-24T14:37:20;99111.97;;;13.21
45034;BMP280;30771;47.988;-4.186;2022-11-24T14:39:45;99092.50;;;13.05
45034;BMP280;30771;47.988;-4.186;2022-11-24T14:44:55;99073.97;;;13.00
45034;BMP280;30771;47.988;-4.186;2022-11-24T14:47:28;99057.56;;;12.98
45034;BMP280;30771;47.988;-4.186;2022-11-24T14:49:55;99032.63;;;12.84
45034;BMP280;30771;47.988;-4.186;2022-11-24T14:52:22;99017.16;;;12.71
45034;BMP280;30771;47.988;-4.186;2022-11-24T14:54:50;99019.69;;;12.83
45034;BMP280;30771;47.988;-4.186;2022-11-24T14:57:36;98988.44;;;12.75
45034;BMP280;30771;47.988;-4.186;2022-11-24T15:02:42;98982.88;;;13.03
45034;BMP280;30771;47.988;-4.186;2022-11-24T15:05:07;98979.69;;;13.06
45034;BMP280;30771;47.988;-4.186;2022-11-24T15:07:35;98978.41;;;13.08
45034;BMP280;30771;47.988;-4.186;2022-11-24T15:10:03;98986.38;;;13.13
45034;BMP280;30771;47.988;-4.186;2022-11-24T15:12:34;98998.78;;;13.13
45034;BMP280;30771;47.988;-4.186;2022-11-24T15:15:04;99009.34;;;13.13
45034;BMP280;30771;47.988;-4.186;2022-11-24T15:17:30;99017.81;;;13.15
45034;BMP280;30771;47.988;-4.186;2022-11-24T15:20:02;99025.44;;;13.06
45034;BMP280;30771;47.988;-4.186;2022-11-24T15:22:35;99068.66;;;13.22
45034;BMP280;30771;47.988;-4.186;2022-11-24T15:25:01;99069.66;;;13.16
45034;BMP280;30771;47.988;-4.186;2022-11-24T15:27:26;99073.00;;;13.06
45034;BMP280;30771;47.988;-4.186;2022-11-24T15:29:52;99086.16;;;13.01
45034;BMP280;30771;47.988;-4.186;2022-11-24T15:32:17;99101.47;;;12.99
45034;BMP280;30771;47.988;-4.186;2022-11-24T15:34:42;99106.97;;;12.98
45034;BMP280;30771;47.988;-4.186;2022-11-24T15:37:08;99101.41;;;12.94
45034;BMP280;30771;47.988;-4.186;2022-11-24T15:39:34;99116.75;;;12.97
45034;BMP280;30771;47.988;-4.186;2022-11-24T15:41:59;99097.63;;;12.90
45034;BMP280;30771;47.988;-4.186;2022-11-24T15:44:25;99118.16;;;13.05
45034;BMP280;30771;47.988;-4.186;2022-11-24T15:46:50;99126.38;;;13.08
45034;BMP280;30771;47.988;-4.186;2022-11-24T15:49:15;99145.19;;;13.12
45034;BMP280;30771;47.988;-4.186;2022-11-24T15:51:43;99148.25;;;13.04
45034;BMP280;30771;47.988;-4.186;2022-11-24T15:54:13;99165.72;;;13.05
45034;BMP280;30771;47.988;-4.186;2022-11-24T15:56:40;99163.16;;;12.88
45034;BMP280;30771;47.988;-4.186;2022-11-24T15:59:05;99164.38;;;12.81
45034;BMP280;30771;47.988;-4.186;2022-11-24T16:01:31;99171.75;;;12.79
45034;BMP280;30771;47.988;-4.186;2022-11-24T16:03:57;99164.81;;;12.73
45034;BMP280;30771;47.988;-4.186;2022-11-24T16:06:22;99179.91;;;12.77
45034;BMP280;30771;47.988;-4.186;2022-11-24T16:08:48;99167.16;;;12.69
45034;BMP280;30771;47.988;-4.186;2022-11-24T16:11:13;99174.06;;;12.70
45034;BMP280;30771;47.988;-4.186;2022-11-24T16:13:38;99175.56;;;12.66
45034;BMP280;30771;47.988;-4.186;2022-11-24T16:16:04;99170.22;;;12.61
45034;BMP280;30771;47.988;-4.186;2022-11-24T16:18:29;99167.25;;;12.58
45034;BMP280;30771;47.988;-4.186;2022-11-24T16:20:54;99171.91;;;12.51
45034;BMP280;30771;47.988;-4.186;2022-11-24T16:23:20;99202.38;;;12.58
45034;BMP280;30771;47.988;-4.186;2022-11-24T16:25:45;99209.19;;;12.54
45034;BMP280;30771;47.988;-4.186;2022-11-24T16:28:10;99219.94;;;12.48
45034;BMP280;30771;47.988;-4.186;2022-11-24T16:30:35;99224.34;;;12.42
45034;BMP280;30771;47.988;-4.186;2022-11-24T16:33:04;99228.81;;;12.42
45034;BMP280;30771;47.988;-4.186;2022-11-24T16:35:29;99230.34;;;12.38
45034;BMP280;30771;47.988;-4.186;2022-11-24T16:37:54;99243.47;;;12.33
45034;BMP280;30771;47.988;-4.186;2022-11-24T16:40:20;99243.63;;;12.26
45034;BMP280;30771;47.988;-4.186;2022-11-24T16:42:45;99248.03;;;12.21
45034;BMP280;30771;47.988;-4.186;2022-11-24T16:45:11;99262.50;;;12.18
45034;BMP280;30771;47.988;-4.186;2022-11-24T16:47:41;99291.75;;;12.16
45034;BMP280;30771;47.988;-4.186;2022-11-24T16:50:08;99300.97;;;12.14
45034;BMP280;30771;47.988;-4.186;2022-11-24T16:52:34;99322.28;;;12.12
45034;BMP280;30771;47.988;-4.186;2022-11-24T16:55:01;99325.09;;;12.06
45034;BMP280;30771;47.988;-4.186;2022-11-24T16:57:26;99330.38;;;12.06
45034;BMP280;30771;47.988;-4.186;2022-11-24T16:59:51;99339.91;;;12.07
45034;BMP280;30771;47.988;-4.186;2022-11-24T17:02:18;99335.94;;;12.09
45034;BMP280;30771;47.988;-4.186;2022-11-24T17:04:45;99345.97;;;12.07
45034;BMP280;30771;47.988;-4.186;2022-11-24T17:07:11;99344.13;;;12.08
45034;BMP280;30771;47.988;-4.186;2022-11-24T17:09:39;99339.31;;;12.05
45034;BMP280;30771;47.988;-4.186;2022-11-24T17:12:04;99331.88;;;12.02
45034;BMP280;30771;47.988;-4.186;2022-11-24T17:14:30;99328.47;;;12.01
45034;BMP280;30771;47.988;-4.186;2022-11-24T17:16:55;99338.19;;;12.01
45034;BMP280;30771;47.988;-4.186;2022-11-24T17:19:21;99331.88;;;12.02
45034;BMP280;30771;47.988;-4.186;2022-11-24T17:21:46;99346.66;;;12.03
45034;BMP280;30771;47.988;-4.186;2022-11-24T17:24:11;99337.94;;;12.02
45034;BMP280;30771;47.988;-4.186;2022-11-24T17:26:41;99342.72;;;11.89
45034;BMP280;30771;47.988;-4.186;2022-11-24T17:29:07;99354.91;;;11.78
45034;BMP280;30771;47.988;-4.186;2022-11-24T17:31:33;99343.72;;;11.60
45034;BMP280;30771;47.988;-4.186;2022-11-24T17:34:00;99344.88;;;11.52
45034;BMP280;30771;47.988;-4.186;2022-11-24T17:36:28;99332.53;;;11.41
45034;BMP280;30771;47.988;-4.186;2022-11-24T17:38:55;99314.00;;;11.36
45034;BMP280;30771;47.988;-4.186;2022-11-24T17:41:20;99307.34;;;11.34
45034;BMP280;30771;47.988;-4.186;2022-11-24T17:43:50;99309.41;;;11.32
45034;BMP280;30771;47.988;-4.186;2022-11-24T17:46:16;99297.75;;;11.28
45034;BMP280;30771;47.988;-4.186;2022-11-24T17:48:41;99281.47;;;11.19
45034;BMP280;30771;47.988;-4.186;2022-11-24T17:51:10;99268.31;;;11.19
45034;BMP280;30771;47.988;-4.186;2022-11-24T17:53:38;99260.19;;;11.21
45034;BMP280;30771;47.988;-4.186;2022-11-24T17:56:05;99247.47;;;11.18
45034;BMP280;30771;47.988;-4.186;2022-11-24T17:58:32;99242.06;;;11.24
45034;BMP280;30771;47.988;-4.186;2022-11-24T18:00:58;99229.59;;;11.20
45034;BMP280;30771;47.988;-4.186;2022-11-24T18:03:24;99242.88;;;11.25
45034;BMP280;30771;47.988;-4.186;2022-11-24T18:05:55;99219.88;;;11.20
45034;BMP280;30771;47.988;-4.186;2022-11-24T18:08:21;99226.50;;;11.23
45034;BMP280;30771;47.988;-4.186;2022-11-24T18:10:46;99223.41;;;11.26
45034;BMP280;30771;47.988;-4.186;2022-11-24T18:13:11;99218.13;;;11.26
45034;BMP280;30771;47.988;-4.186;2022-11-24T18:15:37;99220.69;;;11.21
45034;BMP280;30771;47.988;-4.186;2022-11-24T18:18:02;99245.28;;;11.26
45034;BMP280;30771;47.988;-4.186;2022-11-24T18:20:29;99240.47;;;11.23
45034;BMP280;30771;47.988;-4.186;2022-11-24T18:22:55;99260.28;;;11.26
45034;BMP280;30771;47.988;-4.186;2022-11-24T18:25:21;99268.41;;;11.24
45034;BMP280;30771;47.988;-4.186;2022-11-24T18:27:46;99302.00;;;11.29
45034;BMP280;30771;47.988;-4.186;2022-11-24T18:30:12;99299.59;;;11.15
45034;BMP280;30771;47.988;-4.186;2022-11-24T18:32:37;99319.41;;;11.18
45034;BMP280;30771;47.988;-4.186;2022-11-24T18:35:03;99318.75;;;11.11
45034;BMP280;30771;47.988;-4.186;2022-11-24T18:37:29;99350.44;;;11.16
45034;BMP280;30771;47.988;-4.186;2022-11-24T18:39:58;99351.13;;;11.11
45034;BMP280;30771;47.988;-4.186;2022-11-24T18:42:25;99370.19;;;11.13
45034;BMP280;30771;47.988;-4.186;2022-11-24T18:44:51;99379.31;;;11.11
45034;BMP280;30771;47.988;-4.186;2022-11-24T18:47:16;99389.75;;;11.06
45034;BMP280;30771;47.988;-4.186;2022-11-24T18:49:42;99386.84;;;11.07
45034;BMP280;30771;47.988;-4.186;2022-11-24T18:52:08;99394.22;;;11.05
45034;BMP280;30771;47.988;-4.186;2022-11-24T18:54:33;99406.56;;;11.05
45034;BMP280;30771;47.988;-4.186;2022-11-24T18:56:59;99422.16;;;11.06
45034;BMP280;30771;47.988;-4.186;2022-11-24T18:59:24;99444.81;;;11.07
45034;BMP280;30771;47.988;-4.186;2022-11-24T19:01:49;99436.91;;;11.07
45034;BMP280;30771;47.988;-4.186;2022-11-24T19:04:15;99439.00;;;11.05
45034;BMP280;30771;47.988;-4.186;2022-11-24T19:06:41;99459.75;;;11.13
45034;BMP280;30771;47.988;-4.186;2022-11-24T19:09:15;99454.78;;;11.17
45034;BMP280;30771;47.988;-4.186;2022-11-24T19:11:43;99468.34;;;11.21
45034;BMP280;30771;47.988;-4.186;2022-11-24T19:14:15;99464.66;;;11.22
45034;BMP280;30771;47.988;-4.186;2022-11-24T19:16:40;99471.88;;;11.26
45034;BMP280;30771;47.988;-4.186;2022-11-24T19:19:06;99477.84;;;11.33
45034;BMP280;30771;47.988;-4.186;2022-11-24T19:21:34;99488.84;;;11.42
45034;BMP280;30771;47.988;-4.186;2022-11-24T19:24:00;99488.50;;;11.50
45034;BMP280;30771;47.988;-4.186;2022-11-24T19:26:25;99486.19;;;11.53
45034;BMP280;30771;47.988;-4.186;2022-11-24T19:28:51;99482.31;;;11.56
45034;BMP280;30771;47.988;-4.186;2022-11-24T19:31:17;99484.84;;;11.62
45034;BMP280;30771;47.988;-4.186;2022-11-24T19:33:43;99501.34;;;11.58
45034;BMP280;30771;47.988;-4.186;2022-11-24T19:36:14;99510.03;;;11.58
45034;BMP280;30771;47.988;-4.186;2022-11-24T19:38:40;99505.81;;;11.57
45034;BMP280;30771;47.988;-4.186;2022-11-24T19:41:07;99513.34;;;11.54
45034;BMP280;30771;47.988;-4.186;2022-11-24T19:43:34;99500.19;;;11.54
45034;BMP280;30771;47.988;-4.186;2022-11-24T19:46:03;99487.00;;;11.54
45034;BMP280;30771;47.988;-4.186;2022-11-24T19:48:37;99494.03;;;11.48
45034;BMP280;30771;47.988;-4.186;2022-11-24T19:51:05;99508.22;;;11.47
45034;BMP280;30771;47.988;-4.186;2022-11-24T19:53:31;99497.41;;;11.37
45034;BMP280;30771;47.988;-4.186;2022-11-24T19:56:03;99511.53;;;11.43
45034;BMP280;30771;47.988;-4.186;2022-11-24T19:58:29;99511.53;;;11.43
45034;BMP280;30771;47.988;-4.186;2022-11-24T20:01:25;99500.53;;;11.46
45034;BMP280;30771;47.988;-4.186;2022-11-24T20:03:59;99505.00;;;11.45
45034;BMP280;30771;47.988;-4.186;2022-11-24T20:06:27;99510.63;;;11.49
45034;BMP280;30771;47.988;-4.186;2022-11-24T20:08:53;99544.88;;;11.49
45034;BMP280;30771;47.988;-4.186;2022-11-24T20:11:19;99580.75;;;11.61
45034;BMP280;30771;47.988;-4.186;2022-11-24T20:13:46;99618.88;;;11.65
45034;BMP280;30771;47.988;-4.186;2022-11-24T20:16:14;99637.88;;;11.67
45034;BMP280;30771;47.988;-4.186;2022-11-24T20:18:43;99640.50;;;11.67
45034;BMP280;30771;47.988;-4.186;2022-11-24T20:23:34;99643.59;;;11.64
45034;BMP280;30771;47.988;-4.186;2022-11-24T20:26:09;99653.69;;;11.67
45034;BMP280;30771;47.988;-4.186;2022-11-24T20:28:34;99655.63;;;11.60
45034;BMP280;30771;47.988;-4.186;2022-11-24T20:31:04;99651.38;;;11.59
45034;BMP280;30771;47.988;-4.186;2022-11-24T20:33:30;99644.34;;;11.53
45034;BMP280;30771;47.988;-4.186;2022-11-24T20:36:04;99644.28;;;11.48
45034;BMP280;30771;47.988;-4.186;2022-11-24T20:38:30;99622.56;;;11.35
45034;BMP280;30771;47.988;-4.186;2022-11-24T20:43:31;99628.66;;;11.35
45034;BMP280;30771;47.988;-4.186;2022-11-24T20:46:02;99628.50;;;11.30
45034;BMP280;30771;47.988;-4.186;2022-11-24T20:48:28;99639.63;;;11.32
45034;BMP280;30771;47.988;-4.186;2022-11-24T20:50:53;99624.63;;;11.33
45034;BMP280;30771;47.988;-4.186;2022-11-24T20:53:19;99620.03;;;11.28
45034;BMP280;30771;47.988;-4.186;2022-11-24T20:55:44;99626.13;;;11.29
45034;BMP280;30771;47.988;-4.186;2022-11-24T20:58:09;99623.22;;;11.30
45034;BMP280;30771;47.988;-4.186;2022-11-24T21:00:34;99625.84;;;11.30
45034;BMP280;30771;47.988;-4.186;2022-11-24T21:03:00;99619.91;;;11.35
45034;BMP280;30771;47.988;-4.186;2022-11-24T21:05:25;99607.41;;;11.30
45034;BMP280;30771;47.988;-4.186;2022-11-24T21:07:51;99617.28;;;11.35
45034;BMP280;30771;47.988;-4.186;2022-11-24T21:10:16;99623.38;;;11.35
45034;BMP280;30771;47.988;-4.186;2022-11-24T21:12:41;99627.84;;;11.35
45034;BMP280;30771;47.988;-4.186;2022-11-24T21:15:07;99616.59;;;11.28
45034;BMP280;30771;47.988;-4.186;2022-11-24T21:17:32;99623.81;;;11.32
45034;BMP280;30771;47.988;-4.186;2022-11-24T21:19:57;99608.41;;;11.29
45034;BMP280;30771;47.988;-4.186;2022-11-24T21:22:23;99614.50;;;11.30
45034;BMP280;30771;47.988;-4.186;2022-11-24T21:24:48;99613.84;;;11.34
45034;BMP280;30771;47.988;-4.186;2022-11-24T21:27:13;99630.59;;;11.40
45034;BMP280;30771;47.988;-4.186;2022-11-24T21:29:39;99630.81;;;11.38
45034;BMP280;30771;47.988;-4.186;2022-11-24T21:32:04;99621.75;;;11.34
45034;BMP280;30771;47.988;-4.186;2022-11-24T21:34:29;99636.53;;;11.35
45034;BMP280;30771;47.988;-4.186;2022-11-24T21:36:55;99638.38;;;11.35
45034;BMP280;30771;47.988;-4.186;2022-11-24T21:39:20;99644.88;;;11.32
45034;BMP280;30771;47.988;-4.186;2022-11-24T21:41:45;99634.34;;;11.32
45034;BMP280;30771;47.988;-4.186;2022-11-24T21:44:11;99634.03;;;11.29
45034;BMP280;30771;47.988;-4.186;2022-11-24T21:46:37;99639.84;;;11.31
45034;BMP280;30771;47.988;-4.186;2022-11-24T21:49:02;99651.16;;;11.31
45034;BMP280;30771;47.988;-4.186;2022-11-24T21:51:28;99666.78;;;11.33
45034;BMP280;30771;47.988;-4.186;2022-11-24T21:53:53;99677.53;;;11.31
45034;BMP280;30771;47.988;-4.186;2022-11-24T21:56:20;99687.88;;;11.33
45034;BMP280;30771;47.988;-4.186;2022-11-24T22:01:12;99729.94;;;11.39
45034;BMP280;30771;47.988;-4.186;2022-11-24T22:03:38;99741.16;;;11.35
45034;BMP280;30771;47.988;-4.186;2022-11-24T22:06:03;99749.97;;;11.29
45034;BMP280;30771;47.988;-4.186;2022-11-24T22:08:29;99758.72;;;11.23
45034;BMP280;30771;47.988;-4.186;2022-11-24T22:11:03;99776.94;;;11.24
45034;BMP280;30771;47.988;-4.186;2022-11-24T22:13:29;99768.75;;;11.14
45034;BMP280;30771;47.988;-4.186;2022-11-24T22:16:06;99766.00;;;11.09
45034;BMP280;30771;47.988;-4.186;2022-11-24T22:18:33;99765.25;;;11.02
45034;BMP280;30771;47.988;-4.186;2022-11-24T22:20:59;99758.81;;;10.98
45034;BMP280;30771;47.988;-4.186;2022-11-24T22:23:24;99758.66;;;10.93
45034;BMP280;30771;47.988;-4.186;2022-11-24T22:25:49;99767.00;;;10.90
45034;BMP280;30771;47.988;-4.186;2022-11-24T22:28:15;99761.72;;;10.90
45034;BMP280;30771;47.988;-4.186;2022-11-24T22:30:40;99756.47;;;10.90
45034;BMP280;30771;47.988;-4.186;2022-11-24T22:33:05;99769.63;;;10.90
45034;BMP280;30771;47.988;-4.186;2022-11-24T22:35:31;99757.34;;;10.84
45034;BMP280;30771;47.988;-4.186;2022-11-24T22:37:56;99767.88;;;10.84
45034;BMP280;30771;47.988;-4.186;2022-11-24T22:40:21;99765.44;;;10.82
45034;BMP280;30771;47.988;-4.186;2022-11-24T22:42:46;99763.28;;;10.79
45034;BMP280;30771;47.988;-4.186;2022-11-24T22:45:12;99770.94;;;10.81
45034;BMP280;30771;47.988;-4.186;2022-11-24T22:47:37;99757.25;;;10.72
45034;BMP280;30771;47.988;-4.186;2022-11-24T22:50:03;99766.91;;;10.78
45034;BMP280;30771;47.988;-4.186;2022-11-24T22:52:28;99766.09;;;10.78
45034;BMP280;30771;47.988;-4.186;2022-11-24T22:54:53;99784.69;;;10.83
45034;BMP280;30771;47.988;-4.186;2022-11-24T22:57:19;99770.94;;;10.81
45034;BMP280;30771;47.988;-4.186;2022-11-24T22:59:44;99773.00;;;10.79
